Time;durP1;ratioP1;P1;durP2;ratioP2;P2;SDS_P1;SDS_P2;PMS_P1;PMS_P2;Temp;Humidity;BMP_temperature;BMP_pressure;BME280_temperature;BME280_humidity;BME280_pressure;Samples;Min_cycle;Max_cycle;Signal;HPM_P1;HPM_P2
2021/01/31 00:00:23;;;;;;;22.38;14.93;;;;;;;5.01;81.91;93472.03;5033694;28;20586;-63
2021/01/31 00:02:48;;;;;;;29.25;16.63;;;;;;;4.95;81.81;93468.78;5031474;28;20045;-62
2021/01/31 00:05:14;;;;;;;28.20;15.32;;;;;;;4.84;81.60;93475.44;5031560;28;20082;-61
2021/01/31 00:07:40;;;;;;;20.13;13.63;;;;;;;4.81;81.11;93467.38;5031673;28;20038;-62
2021/01/31 00:10:07;;;;;;;23.75;14.23;;;;;;;4.65;81.43;93446.72;5031789;28;20040;-61
2021/01/31 00:12:33;;;;;;;36.85;16.50;;;;;;;4.74;81.25;93473.09;5031373;28;20029;-62
2021/01/31 00:14:59;;;;;;;30.27;16.98;;;;;;;4.78;82.11;93462.72;5033436;28;20029;-61
2021/01/31 00:17:24;;;;;;;35.42;18.00;;;;;;;4.70;82.07;93449.22;5030020;28;20044;-63
2021/01/31 00:19:49;;;;;;;44.83;19.02;;;;;;;4.69;83.10;93429.25;5031327;28;20030;-63
2021/01/31 00:22:15;;;;;;;40.90;17.75;;;;;;;4.85;82.40;93478.84;5031288;28;20045;-61
2021/01/31 00:24:40;;;;;;;35.00;17.40;;;;;;;4.65;82.91;93445.97;5031393;28;20627;-61
2021/01/31 00:27:05;;;;;;;21.70;13.93;;;;;;;4.76;82.32;93476.22;5033218;28;20079;-61
2021/01/31 00:29:31;;;;;;;23.52;13.63;;;;;;;4.33;81.94;93442.66;5031207;28;20407;-61
2021/01/31 00:31:56;;;;;;;26.10;14.77;;;;;;;4.40;82.33;93465.88;5030994;28;20125;-61
2021/01/31 00:34:22;;;;;;;27.15;14.23;;;;;;;4.38;82.79;93483.84;5031139;28;20133;-62
2021/01/31 00:36:48;;;;;;;25.98;13.60;;;;;;;4.14;82.78;93450.78;5030868;28;20037;-62
2021/01/31 00:39:13;;;;;;;31.35;13.90;;;;;;;4.07;83.01;93439.16;5032964;28;20025;-61
2021/01/31 00:41:39;;;;;;;31.80;14.85;;;;;;;4.31;82.89;93478.25;5030643;28;20048;-62
2021/01/31 00:44:06;;;;;;;26.20;13.38;;;;;;;4.16;82.51;93468.91;5030932;28;20144;-62
2021/01/31 00:46:36;;;;;;;26.67;13.00;;;;;;;4.17;83.46;93446.78;5030885;28;20499;-62
2021/01/31 00:49:02;;;;;;;21.65;11.63;;;;;;;4.27;83.42;93480.72;5030568;28;20048;-62
2021/01/31 00:51:27;;;;;;;16.98;9.80;;;;;;;4.00;83.42;93452.75;5032546;28;20445;-63
2021/01/31 00:53:52;;;;;;;20.50;10.98;;;;;;;3.84;83.55;93448.97;5030661;28;20132;-62
2021/01/31 00:56:18;;;;;;;16.98;10.75;;;;;;;4.14;83.50;93473.69;5030770;28;20041;-62
2021/01/31 00:58:45;;;;;;;20.02;11.45;;;;;;;3.93;83.27;93444.50;5028877;28;20069;-63
2021/01/31 01:01:11;;;;;;;29.20;12.40;;;;;;;4.28;84.06;93489.38;5030470;28;20103;-61
2021/01/31 01:03:36;;;;;;;16.58;10.35;;;;;;;4.11;83.91;93450.63;5030393;28;20430;-62
2021/01/31 01:06:02;;;;;;;24.92;12.10;;;;;;;4.12;83.33;93452.94;5031343;28;20055;-61
2021/01/31 01:08:27;;;;;;;14.90;10.20;;;;;;;4.05;82.49;93441.34;5028853;28;20171;-62
2021/01/31 01:10:52;;;;;;;24.80;12.65;;;;;;;4.32;83.47;93485.06;5029544;28;20037;-62
2021/01/31 01:13:18;;;;;;;24.15;11.65;;;;;;;4.16;82.66;93479.44;5027435;28;20057;-63
2021/01/31 01:15:43;;;;;;;23.92;11.57;;;;;;;3.91;82.56;93455.34;5031137;28;20061;-63
2021/01/31 01:18:08;;;;;;;19.75;11.30;;;;;;;4.06;83.51;93467.34;5033031;28;20022;-62
2021/01/31 01:20:33;;;;;;;25.88;12.88;;;;;;;4.18;83.78;93480.69;5030884;28;20048;-62
2021/01/31 01:22:59;;;;;;;24.77;11.60;;;;;;;3.99;83.02;93472.22;5031023;28;20049;-62
2021/01/31 01:25:25;;;;;;;20.85;11.80;;;;;;;4.16;83.77;93498.63;5031351;28;20041;-62
2021/01/31 01:27:50;;;;;;;22.77;10.85;;;;;;;3.84;81.91;93501.59;5031046;28;20482;-62
2021/01/31 01:30:19;;;;;;;20.25;10.80;;;;;;;3.84;83.31;93470.03;5033172;28;20108;-61
2021/01/31 01:32:44;;;;;;;26.80;12.40;;;;;;;3.89;82.79;93486.44;5030895;28;20065;-61
2021/01/31 01:35:11;;;;;;;26.85;12.48;;;;;;;3.97;83.05;93499.94;5030946;28;20487;-61
2021/01/31 01:37:36;;;;;;;25.77;12.18;;;;;;;3.81;82.99;93470.63;5030752;28;20129;-62
2021/01/31 01:40:04;;;;;;;23.23;12.13;;;;;;;3.95;83.30;93481.06;5029564;28;20133;-62
2021/01/31 01:42:29;;;;;;;26.88;12.13;;;;;;;3.61;82.80;93469.25;5031372;28;20033;-63
2021/01/31 01:44:55;;;;;;;24.85;12.35;;;;;;;3.63;82.23;93486.31;5030966;28;20045;-62
2021/01/31 01:47:23;;;;;;;26.95;12.88;;;;;;;3.41;82.84;93490.78;5030560;28;20049;-63
2021/01/31 01:49:55;;;;;;;32.35;13.40;;;;;;;3.29;82.58;93478.19;5030334;28;20084;-61
2021/01/31 01:52:23;;;;;;;33.85;14.32;;;;;;;3.16;83.07;93477.16;5030615;28;20037;-62
2021/01/31 01:55:11;;;;;;;35.78;15.43;;;;;;;2.97;82.82;93464.19;5029495;28;20041;-62
2021/01/31 01:57:50;;;;;;;46.53;16.70;;;;;;;3.19;84.09;93507.31;5030362;28;20025;-63
2021/01/31 02:00:17;;;;;;;38.42;17.05;;;;;;;2.97;83.86;93493.09;5031310;28;20375;-63
2021/01/31 02:02:54;;;;;;;36.50;16.92;;;;;;;2.91;83.83;93507.38;5036294;23;20062;-70
2021/01/31 02:05:19;;;;;;;45.42;19.30;;;;;;;3.10;83.80;93502.75;4991333;28;20459;-70
2021/01/31 02:07:45;;;;;;;38.15;19.10;;;;;;;3.21;84.21;93513.03;4990845;28;20050;-70
2021/01/31 02:10:14;;;;;;;57.20;21.48;;;;;;;3.21;83.67;93513.03;4991263;28;20054;-70
2021/01/31 02:12:41;;;;;;;63.03;22.45;;;;;;;2.91;83.15;93496.09;4990931;28;20527;-70
2021/01/31 02:15:07;;;;;;;79.30;24.73;;;;;;;3.21;83.81;93513.81;4993016;28;20030;-70
2021/01/31 02:17:43;;;;;;;60.10;24.35;;;;;;;3.23;84.18;93521.44;4990391;28;20500;-71
2021/01/31 02:20:34;;;;;;;68.85;25.02;;;;;;;2.85;83.60;93511.19;4990515;28;20039;-70
2021/01/31 02:23:17;;;;;;;71.40;26.73;;;;;;;2.93;84.26;93522.84;4990711;28;20042;-71
2021/01/31 02:25:57;;;;;;;71.93;27.67;;;;;;;2.62;83.65;93505.13;4989768;28;20054;-70
2021/01/31 02:28:44;;;;;;;72.43;27.60;;;;;;;3.03;84.28;93526.03;4990714;28;20042;-69
2021/01/31 02:31:47;;;;;;;54.63;25.55;;;;;;;2.96;83.55;93532.75;4990773;28;20042;-71
2021/01/31 02:34:17;;;;;;;72.95;27.17;;;;;;;2.68;83.22;93532.81;4990630;28;20126;-71
2021/01/31 02:36:51;;;;;;;72.28;27.63;;;;;;;2.30;83.78;93529.59;4990619;28;20034;-72
2021/01/31 02:39:44;;;;;;;54.08;24.92;;;;;;;2.24;85.27;93538.63;4992595;28;20571;-70
2021/01/31 02:42:31;;;;;;;68.40;26.80;;;;;;;2.29;84.84;93528.03;4989725;28;20046;-71
2021/01/31 02:45:33;;;;;;;79.18;29.00;;;;;;;2.43;84.31;93528.84;4991188;28;20050;-72
2021/01/31 02:48:14;;;;;;;76.85;29.00;;;;;;;2.49;84.10;93537.38;4973268;28;20050;-68
2021/01/31 02:50:53;;;;;;;59.83;25.48;;;;;;;2.40;84.08;93526.78;4990143;28;20050;-68
2021/01/31 02:53:25;;;;;;;67.63;27.40;;;;;;;2.40;83.53;93532.03;4989139;28;20381;-68
2021/01/31 02:55:58;;;;;;;59.45;26.90;;;;;;;2.42;83.95;93524.66;4990457;28;20196;-69
2021/01/31 02:58:26;;;;;;;67.55;27.67;;;;;;;2.43;83.78;93512.31;4988957;28;20129;-68
2021/01/31 03:01:15;;;;;;;74.13;29.02;;;;;;;2.66;83.79;93523.66;4990533;28;20039;-68
2021/01/31 03:04:05;;;;;;;69.85;28.15;;;;;;;2.79;84.25;93528.91;4988858;28;20034;-69
2021/01/31 03:06:37;;;;;;;83.63;31.33;;;;;;;2.95;84.01;93520.72;4992338;28;20052;-67
2021/01/31 03:09:26;;;;;;;;;;;;;;;3.15;83.91;93532.63;4989827;28;20078;-67
2021/01/31 03:12:03;;;;;;;98.72;31.00;;;;;;;2.83;83.24;93532.50;4990087;28;20009;-68
2021/01/31 03:14:35;;;;;;;69.30;26.02;;;;;;;2.65;82.83;93541.25;4989181;28;20526;-67
2021/01/31 03:17:12;;;;;;;75.88;28.65;;;;;;;2.35;82.40;93542.63;4989984;28;20043;-67
2021/01/31 03:19:44;;;;;;;74.13;27.65;;;;;;;2.41;83.74;93551.19;4989780;28;20038;-67
2021/01/31 03:22:17;;;;;;;76.35;28.63;;;;;;;2.32;83.28;93536.13;4989731;28;20121;-67
2021/01/31 03:24:50;;;;;;;62.58;26.27;;;;;;;2.27;83.40;93559.06;4988789;28;20026;-67
2021/01/31 03:27:19;;;;;;;76.28;28.48;;;;;;;2.26;83.72;93550.41;4992033;28;20543;-66
2021/01/31 03:29:44;;;;;;;73.32;27.67;;;;;;;2.20;83.70;93553.41;4991974;28;20058;-66
2021/01/31 03:32:23;;;;;;;72.70;27.05;;;;;;;2.39;84.15;93555.94;4993700;28;20085;-66
2021/01/31 03:35:06;;;;;;;69.13;27.05;;;;;;;2.46;83.78;93561.59;4994020;28;20122;-68
2021/01/31 03:37:37;;;;;;;68.57;28.27;;;;;;;2.72;84.05;93570.53;4993622;28;20043;-68
2021/01/31 03:40:06;;;;;;;68.65;27.95;;;;;;;2.84;82.90;93573.44;4992482;28;20077;-67
2021/01/31 03:42:31;;;;;;;59.83;27.25;;;;;;;2.94;83.51;93567.22;4993478;28;20026;-65
2021/01/31 03:44:58;;;;;;;67.95;27.42;;;;;;;2.89;83.11;93551.56;4994830;28;20110;-67
2021/01/31 03:47:38;;;;;;;48.63;24.17;;;;;;;2.74;82.17;93565.75;4992981;28;20038;-67
2021/01/31 03:50:04;;;;;;;57.60;24.42;;;;;;;2.31;81.88;93550.31;4991838;28;20045;-66
2021/01/31 03:52:30;;;;;;;54.85;25.48;;;;;;;2.77;82.42;93574.91;4992989;28;20126;-67
2021/01/31 03:54:55;;;;;;;64.47;25.85;;;;;;;2.54;82.06;93571.41;4993452;28;20042;-67
2021/01/31 03:57:33;;;;;;;70.63;27.35;;;;;;;2.50;82.17;93591.41;4994072;28;20076;-68
2021/01/31 04:00:16;;;;;;;57.60;26.70;;;;;;;2.62;82.13;93583.88;4994055;28;20046;-66
2021/01/31 04:03:00;;;;;;;55.60;25.00;;;;;;;2.32;82.90;93593.06;4993199;28;20050;-67
2021/01/31 04:05:28;;;;;;;57.70;25.10;;;;;;;2.19;83.22;93602.47;4993482;28;20683;-68
2021/01/31 04:07:56;;;;;;;48.08;22.80;;;;;;;2.03;83.81;93599.31;4991782;28;20072;-67
2021/01/31 04:10:22;;;;;;;59.53;26.35;;;;;;;2.16;83.34;93602.28;4993332;28;20047;-67
2021/01/31 04:12:53;;;;;;;50.65;25.83;;;;;;;2.20;83.72;93605.84;4993307;28;20034;-69
2021/01/31 04:15:41;;;;;;;88.53;31.38;;;;;;;2.36;83.44;93606.41;4995219;28;20124;-67
2021/01/31 04:18:08;;;;;;;56.08;23.92;;;;;;;2.00;82.63;93599.13;4993601;28;20068;-67
2021/01/31 04:20:34;;;;;;;61.88;25.55;;;;;;;2.12;82.97;93609.16;4992808;28;20042;-68
2021/01/31 04:22:59;;;;;;;62.00;27.48;;;;;;;2.29;82.88;93596.25;4993019;28;20448;-67
2021/01/31 04:25:26;;;;;;;64.80;28.40;;;;;;;2.13;82.46;93574.00;4992929;28;20047;-67
2021/01/31 04:27:51;;;;;;;67.45;27.92;;;;;;;2.39;82.63;93609.19;4992827;28;20034;-67
2021/01/31 04:30:17;;;;;;;54.47;26.08;;;;;;;2.41;82.59;93607.09;4995011;28;20084;-67
2021/01/31 04:32:42;;;;;;;65.78;27.13;;;;;;;2.52;81.94;93611.06;4992933;28;20042;-67
2021/01/31 04:35:09;;;;;;;61.85;27.05;;;;;;;2.56;82.38;93611.28;4993057;28;20053;-69
2021/01/31 04:37:35;;;;;;;54.92;24.08;;;;;;;2.24;81.39;93612.88;4992656;28;20042;-68
2021/01/31 04:40:04;;;;;;;70.55;27.42;;;;;;;2.49;82.66;93605.63;4991519;28;20528;-75
2021/01/31 04:42:30;;;;;;;44.70;22.50;;;;;;;2.00;80.77;93607.00;4994524;28;20054;-72
2021/01/31 04:44:55;;;;;;;43.75;21.98;;;;;;;2.25;81.77;93618.88;4992878;28;20081;-73
2021/01/31 04:47:20;;;;;;;44.83;22.95;;;;;;;2.34;81.72;93630.28;4991759;28;20046;-72
2021/01/31 04:50:43;;;;;;;43.58;22.33;;;;;;;1.82;82.08;93632.94;4990551;28;20052;-72
2021/01/31 04:53:38;;;;;;;50.65;23.33;;;;;;;1.84;82.46;93640.53;4915437;29;20059;-72
2021/01/31 04:56:28;;;;;;;43.05;20.85;;;;;;;1.67;82.49;93635.81;4915293;29;20043;-73
2021/01/31 04:59:04;;;;;;;49.15;22.58;;;;;;;1.43;82.82;93630.63;4980687;28;20496;-72
2021/01/31 05:01:31;;;;;;;56.13;24.73;;;;;;;1.46;82.99;93627.44;4991465;28;20042;-72
2021/01/31 05:04:03;;;;;;;54.72;26.40;;;;;;;1.71;82.85;93633.41;4990295;28;20050;-72
2021/01/31 05:06:37;;;;;;;47.38;23.92;;;;;;;1.59;82.30;93633.84;4993611;28;20026;-72
2021/01/31 05:09:04;;;;;;;37.75;22.15;;;;;;;1.74;82.50;93641.47;4991709;28;20038;-74
2021/01/31 05:11:44;;;;;;;48.58;24.85;;;;;;;1.82;81.80;93645.28;4991212;28;20035;-71
2021/01/31 05:14:14;;;;;;;55.80;26.27;;;;;;;1.68;81.93;93653.06;4990277;28;20092;-72
2021/01/31 05:16:41;;;;;;;51.30;25.80;;;;;;;1.74;81.98;93649.34;4991705;28;20373;-72
2021/01/31 05:19:13;;;;;;;51.38;25.52;;;;;;;1.79;81.62;93653.72;4992000;28;20046;-72
2021/01/31 05:21:39;;;;;;;45.28;24.42;;;;;;;1.66;81.60;93659.69;4991626;28;20026;-72
2021/01/31 05:24:17;;;;;;;49.08;24.38;;;;;;;1.75;80.84;93650.91;4992927;28;20037;-72
2021/01/31 05:26:48;;;;;;;41.38;24.20;;;;;;;1.87;81.13;93666.19;4991065;28;20039;-71
2021/01/31 05:29:21;;;;;;;35.22;21.45;;;;;;;1.62;80.02;93654.22;4991087;28;20097;-71
2021/01/31 05:31:57;;;;;;;40.78;23.80;;;;;;;1.91;80.32;93669.78;4989673;28;20133;-70
2021/01/31 05:34:42;;;;;;;42.20;22.90;;;;;;;1.74;80.46;93675.56;4991121;28;20046;-70
2021/01/31 05:37:12;;;;;;;32.33;20.98;;;;;;;1.64;80.55;93673.09;4990827;28;20129;-70
2021/01/31 05:39:40;;;;;;;40.08;23.67;;;;;;;1.48;81.21;93677.72;4990905;28;20077;-70
2021/01/31 05:42:28;;;;;;;32.15;20.60;;;;;;;1.53;80.81;93669.78;4992655;28;20026;-70
2021/01/31 05:44:57;;;;;;;31.05;20.00;;;;;;;1.67;81.45;93679.59;4990817;28;20046;-71
2021/01/31 05:47:25;;;;;;;26.10;19.38;;;;;;;1.56;81.10;93684.19;4990654;28;20100;-71
2021/01/31 05:49:53;;;;;;;24.35;19.33;;;;;;;1.49;81.47;93691.63;4990758;28;20038;-71
2021/01/31 05:52:18;;;;;;;26.42;19.20;;;;;;;1.48;81.49;93690.81;4989899;28;20072;-71
2021/01/31 05:54:46;;;;;;;26.10;19.20;;;;;;;1.32;81.89;93678.22;4990708;28;20385;-71
2021/01/31 05:57:29;;;;;;;28.83;20.38;;;;;;;1.41;80.98;93687.00;4992291;28;20080;-71
2021/01/31 05:59:56;;;;;;;21.42;17.10;;;;;;;1.19;81.43;93696.19;4990410;28;20039;-70
2021/01/31 06:02:27;;;;;;;26.55;20.05;;;;;;;1.50;81.16;93704.44;4988703;28;20552;-71
2021/01/31 06:05:20;;;;;;;31.13;21.08;;;;;;;1.53;81.37;93693.38;4989095;28;20050;-70
2021/01/31 06:07:56;;;;;;;32.22;20.27;;;;;;;1.55;80.21;93700.97;4985351;28;20043;-72
2021/01/31 06:10:22;;;;;;;28.15;18.98;;;;;;;1.36;79.95;93711.41;4990255;28;20097;-70
2021/01/31 06:12:49;;;;;;;24.48;19.00;;;;;;;1.52;79.89;93704.16;4990020;28;20380;-70
2021/01/31 06:15:23;;;;;;;24.73;18.27;;;;;;;1.28;80.04;93706.81;4992167;28;20399;-70
2021/01/31 06:18:02;;;;;;;22.38;17.05;;;;;;;1.59;80.30;93712.47;4990147;28;20050;-70
2021/01/31 06:20:35;;;;;;;25.45;18.45;;;;;;;1.50;79.08;93712.31;4989796;28;20093;-70
2021/01/31 06:23:03;;;;;;;22.27;18.00;;;;;;;1.61;79.26;93712.16;4989849;28;20041;-72
2021/01/31 06:25:28;;;;;;;21.40;16.08;;;;;;;1.24;78.18;93724.94;4989572;28;20038;-69
2021/01/31 06:28:09;;;;;;;21.45;17.30;;;;;;;1.46;78.79;93727.03;4989201;28;20057;-71
2021/01/31 06:30:35;;;;;;;20.85;16.58;;;;;;;1.54;79.61;93729.03;4988474;28;20053;-69
2021/01/31 06:33:00;;;;;;;21.85;16.90;;;;;;;1.35;78.62;93716.94;4991539;28;20027;-70
2021/01/31 06:35:26;;;;;;;21.20;17.05;;;;;;;1.60;77.87;93716.63;4989731;28;20092;-70
2021/01/31 06:38:01;;;;;;;20.10;17.30;;;;;;;1.58;78.23;93725.81;4989337;28;20455;-70
2021/01/31 06:40:40;;;;;;;23.77;17.60;;;;;;;1.52;77.77;93712.00;4987832;28;20054;-71
2021/01/31 06:43:25;;;;;;;20.63;17.75;;;;;;;1.70;78.60;93723.59;4989368;28;20052;-68
2021/01/31 06:46:20;;;;;;;22.20;17.33;;;;;;;1.75;77.66;93731.38;4988370;28;20035;-70
2021/01/31 06:49:04;;;;;;;19.58;16.75;;;;;;;1.75;77.57;93732.16;4989469;28;20019;-71
2021/01/31 06:52:04;;;;;;;23.75;17.50;;;;;;;1.78;77.01;93738.66;4991240;28;20034;-70
2021/01/31 06:54:54;;;;;;;19.35;16.80;;;;;;;1.92;77.95;93741.38;4990787;28;20027;-70
2021/01/31 06:57:22;;;;;;;23.30;17.08;;;;;;;1.85;77.44;93743.56;4989700;28;20054;-70
2021/01/31 07:00:20;;;;;;;19.98;16.75;;;;;;;2.15;77.44;93742.34;4988294;28;20577;-70
2021/01/31 07:03:20;;;;;;;20.98;16.58;;;;;;;2.23;76.95;93746.97;4989292;28;20054;-70
2021/01/31 07:06:13;;;;;;;17.98;15.55;;;;;;;2.32;76.84;93743.41;4989633;28;20050;-70
2021/01/31 07:09:11;;;;;;;20.48;17.05;;;;;;;2.52;77.46;93746.78;4989502;28;20463;-70
2021/01/31 07:11:42;;;;;;;17.20;15.40;;;;;;;2.67;76.62;93748.38;4956249;28;20038;-72
2021/01/31 07:14:29;;;;;;;17.40;15.38;;;;;;;2.54;75.22;93745.41;4989410;28;20252;-70
2021/01/31 07:17:20;;;;;;;17.73;15.40;;;;;;;2.52;75.25;93731.81;4987838;28;20554;-70
2021/01/31 07:20:07;;;;;;;21.77;17.40;;;;;;;2.88;76.44;93752.22;4987971;28;20570;-70
2021/01/31 07:22:48;;;;;;;17.80;15.90;;;;;;;2.69;74.43;93743.63;4989017;28;20050;-70
2021/01/31 07:25:19;;;;;;;15.98;14.30;;;;;;;2.62;74.42;93744.00;4989387;28;20031;-70
2021/01/31 07:27:57;;;;;;;17.00;14.90;;;;;;;2.79;74.46;93756.56;4988900;28;20034;-70
2021/01/31 07:30:35;;;;;;;18.50;16.67;;;;;;;2.64;74.91;93722.69;4989994;28;20019;-70
2021/01/31 07:33:12;;;;;;;16.27;14.57;;;;;;;2.93;73.23;93761.84;4988341;28;20089;-70
2021/01/31 07:36:08;;;;;;;15.52;14.02;;;;;;;2.97;74.69;93747.88;4989280;28;20046;-70
2021/01/31 07:38:45;;;;;;;15.38;13.77;;;;;;;3.19;74.34;93749.03;4966066;28;20078;-69
2021/01/31 07:41:13;;;;;;;14.88;13.43;;;;;;;3.35;73.83;93747.69;4988594;28;20034;-71
2021/01/31 07:43:40;;;;;;;14.38;12.98;;;;;;;3.43;73.02;93749.66;4987995;28;20034;-69
2021/01/31 07:46:08;;;;;;;14.32;12.55;;;;;;;3.53;73.25;93756.53;4989155;28;20039;-71
2021/01/31 07:48:51;;;;;;;12.93;11.68;;;;;;;3.70;70.99;93774.34;4988867;28;20022;-72
2021/01/31 07:51:39;;;;;;;13.10;11.90;;;;;;;3.42;70.31;93784.09;4990904;28;20053;-71
2021/01/31 07:54:28;;;;;;;13.15;11.95;;;;;;;3.60;71.22;93786.63;4989126;28;20071;-72
2021/01/31 07:56:55;;;;;;;12.70;11.50;;;;;;;3.42;70.28;93794.59;4987685;28;20595;-73
2021/01/31 07:59:25;;;;;;;13.95;12.50;;;;;;;3.56;71.87;93800.66;4987781;28;20388;-71
2021/01/31 08:01:53;;;;;;;13.25;11.95;;;;;;;3.67;72.37;93809.13;4988864;28;20125;-70
2021/01/31 08:04:22;;;;;;;12.90;11.70;;;;;;;3.60;70.66;93804.25;4988951;28;20046;-71
2021/01/31 08:07:00;;;;;;;13.50;12.20;;;;;;;3.59;72.25;93798.22;4988890;28;20116;-70
2021/01/31 08:09:25;;;;;;;13.48;12.27;;;;;;;3.81;73.20;93805.41;4990928;28;20089;-70
2021/01/31 08:11:55;;;;;;;12.98;11.68;;;;;;;3.84;71.66;93804.84;4988830;28;20042;-70
2021/01/31 08:14:58;;;;;;;12.85;11.65;;;;;;;3.76;70.34;93799.47;4987969;28;20046;-67
2021/01/31 08:17:39;;;;;;;12.80;11.60;;;;;;;3.68;70.80;93798.28;4992104;28;20404;-69
2021/01/31 08:20:16;;;;;;;13.75;12.35;;;;;;;3.58;69.85;93799.28;4992112;28;20042;-69
2021/01/31 08:22:41;;;;;;;14.00;12.60;;;;;;;3.34;69.66;93788.97;4990696;28;20042;-68
2021/01/31 08:25:07;;;;;;;13.48;12.15;;;;;;;3.18;68.83;93810.56;4991054;28;20069;-69
2021/01/31 08:27:38;;;;;;;13.35;12.05;;;;;;;3.33;71.13;93813.69;4991716;28;20065;-67
2021/01/31 08:30:21;;;;;;;13.40;12.13;;;;;;;3.53;71.56;93806.47;4994242;28;20038;-70
2021/01/31 08:32:58;;;;;;;;;;;;;;;3.63;71.45;93822.06;4992371;28;20035;-69
2021/01/31 08:35:29;;;;;;;14.80;13.23;;;;;;;3.88;71.43;93816.31;4992053;28;19918;-68
2021/01/31 08:38:14;;;;;;;12.30;11.20;;;;;;;3.82;68.79;93814.06;4991642;28;20050;-70
2021/01/31 08:40:41;;;;;;;13.85;12.45;;;;;;;4.02;70.06;93824.19;4991729;28;20038;-69
2021/01/31 08:43:10;;;;;;;12.48;11.30;;;;;;;3.92;71.02;93775.19;4990487;28;20046;-71
2021/01/31 08:45:44;;;;;;;12.65;11.55;;;;;;;4.37;69.63;93835.06;4991352;28;20018;-80
2021/01/31 08:48:09;;;;;;;14.13;11.40;;;;;;;4.22;68.34;93833.53;4994339;28;20027;-82
2021/01/31 08:50:35;;;;;;;12.38;11.32;;;;;;;4.21;68.07;93839.09;4991882;28;20094;-68
2021/01/31 08:53:02;;;;;;;12.50;11.40;;;;;;;4.36;69.08;93838.78;4991899;28;20427;-74
2021/01/31 08:55:28;;;;;;;12.20;11.10;;;;;;;3.94;68.00;93788.03;4991962;28;20582;-67
2021/01/31 08:57:59;;;;;;;12.68;11.43;;;;;;;4.13;67.23;93832.66;4991246;28;20134;-66
2021/01/31 09:00:27;;;;;;;12.23;11.13;;;;;;;4.48;68.70;93841.66;4993943;28;20097;-70
2021/01/31 09:02:52;;;;;;;11.55;10.48;;;;;;;4.53;66.79;93849.44;4991184;28;20282;-66
2021/01/31 09:05:19;;;;;;;12.70;11.45;;;;;;;4.83;69.79;93845.34;4992190;28;20776;-78
2021/01/31 09:07:48;;;;;;;12.85;11.65;;;;;;;4.81;67.28;93828.25;4990037;28;20073;-71
2021/01/31 09:10:24;;;;;;;12.98;11.77;;;;;;;4.63;65.19;93814.97;4990163;28;20046;-70
2021/01/31 09:12:49;;;;;;;13.70;12.40;;;;;;;4.85;66.62;93840.53;4990331;28;20377;-72
2021/01/31 09:15:17;;;;;;;13.25;12.10;;;;;;;4.56;64.66;93840.19;4993314;28;20085;-67
2021/01/31 09:17:42;;;;;;;13.52;12.32;;;;;;;4.62;65.50;93823.19;4989676;28;20070;-71
2021/01/31 09:20:12;;;;;;;13.90;12.48;;;;;;;4.72;65.34;93836.13;4991841;28;20448;-81
2021/01/31 09:22:40;;;;;;;13.98;12.73;;;;;;;4.57;66.14;93829.34;4991830;28;20035;-75
2021/01/31 09:25:08;;;;;;;14.35;13.02;;;;;;;4.55;64.42;93825.44;4991528;28;20049;-66
2021/01/31 09:27:43;;;;;;;14.15;12.90;;;;;;;4.69;65.81;93845.38;4989800;28;20018;-69
2021/01/31 09:30:11;;;;;;;14.32;12.82;;;;;;;4.58;64.00;93846.69;4993861;28;20026;-73
2021/01/31 09:32:36;;;;;;;13.80;12.50;;;;;;;4.51;63.73;93861.34;4989735;28;20074;-70
2021/01/31 09:35:06;;;;;;;15.13;13.48;;;;;;;4.59;67.11;93853.50;4990638;28;20100;-68
2021/01/31 09:37:32;;;;;;;13.85;12.50;;;;;;;4.76;66.17;93841.56;4990541;28;20141;-70
2021/01/31 09:40:00;;;;;;;14.13;12.80;;;;;;;4.77;66.57;93854.44;4991102;28;20050;-69
2021/01/31 09:42:45;;;;;;;20.20;15.35;;;;;;;4.70;66.25;93859.34;4993449;28;20030;-75
2021/01/31 09:45:24;;;;;;;15.73;14.00;;;;;;;4.68;66.97;93857.00;4992128;28;20050;-68
2021/01/31 09:47:50;;;;;;;15.25;13.73;;;;;;;4.89;66.34;93840.72;4989468;28;20046;-72
2021/01/31 09:50:17;;;;;;;15.23;13.80;;;;;;;5.04;64.27;93855.41;4990791;28;20149;-69
2021/01/31 09:52:43;;;;;;;14.27;12.93;;;;;;;4.95;64.10;93842.16;4991184;28;20053;-70
2021/01/31 09:55:40;;;;;;;14.43;13.02;;;;;;;4.64;63.16;93865.78;4993107;28;20058;-73
2021/01/31 09:58:16;;;;;;;88.00;38.35;;;;;;;4.63;66.60;93869.50;4990593;28;20047;-78
2021/01/31 10:00:42;;;;;;;15.77;14.23;;;;;;;4.77;64.46;93853.66;4989478;28;20050;-72
2021/01/31 10:03:15;;;;;;;13.93;12.63;;;;;;;4.84;64.47;93856.66;4992520;28;20485;-77
2021/01/31 10:05:41;;;;;;;14.73;13.35;;;;;;;4.64;62.76;93871.06;4990914;28;20038;-74
2021/01/31 10:08:12;;;;;;;15.18;13.68;;;;;;;4.78;64.84;93871.81;4990267;28;20043;-73
2021/01/31 10:10:39;;;;;;;14.25;12.85;;;;;;;4.68;65.31;93880.72;4990886;28;20108;-76
2021/01/31 10:13:20;;;;;;;15.30;13.77;;;;;;;4.86;64.30;93868.47;4990132;28;20054;-68
2021/01/31 10:15:57;;;;;;;15.45;14.05;;;;;;;4.82;64.07;93867.50;4990365;28;20428;-70
2021/01/31 10:18:32;;;;;;;16.58;14.88;;;;;;;4.61;63.21;93861.91;4992107;28;20113;-67
2021/01/31 10:21:24;;;;;;;17.77;15.98;;;;;;;4.75;65.33;93867.13;4990528;28;20057;-69
2021/01/31 10:23:59;;;;;;;17.48;15.57;;;;;;;4.81;63.66;93867.78;4990651;28;20038;-68
2021/01/31 10:26:25;;;;;;;15.57;14.10;;;;;;;4.82;62.29;93846.44;4990233;28;20169;-72
2021/01/31 10:28:56;;;;;;;17.10;15.30;;;;;;;5.06;63.89;93867.19;4990071;28;20085;-69
2021/01/31 10:31:37;;;;;;;17.80;15.90;;;;;;;5.19;63.59;93866.38;4989670;28;20409;-69
2021/01/31 10:34:06;;;;;;;16.95;15.25;;;;;;;4.66;62.12;93863.66;4990439;28;20046;-74
2021/01/31 10:36:35;;;;;;;16.92;15.23;;;;;;;4.40;63.16;93858.94;4990534;28;20435;-71
2021/01/31 10:39:09;;;;;;;16.75;14.95;;;;;;;4.70;63.68;93880.41;4990327;28;20492;-71
2021/01/31 10:41:38;;;;;;;17.15;15.45;;;;;;;4.73;63.33;93877.19;4989917;28;20081;-76
2021/01/31 10:44:06;;;;;;;18.40;16.33;;;;;;;4.87;63.74;93845.53;4988733;28;20039;-70
2021/01/31 10:46:35;;;;;;;17.20;15.15;;;;;;;4.99;63.65;93840.50;4988837;28;20049;-70
2021/01/31 10:49:00;;;;;;;17.38;15.57;;;;;;;5.20;63.25;93841.56;4989590;28;20064;-69
2021/01/31 10:51:32;;;;;;;17.35;15.65;;;;;;;5.54;62.90;93863.16;4991645;28;20480;-72
2021/01/31 10:53:58;;;;;;;17.15;15.45;;;;;;;5.39;61.62;93869.59;4988806;28;20404;-76
2021/01/31 10:56:23;;;;;;;18.42;15.98;;;;;;;5.43;62.08;93850.22;4989491;28;20049;-69
2021/01/31 10:58:49;;;;;;;17.20;15.60;;;;;;;5.37;60.61;93845.34;4989063;28;20581;-68
2021/01/31 11:01:15;;;;;;;19.13;17.13;;;;;;;5.39;61.14;93816.84;4989261;28;20039;-68
2021/01/31 11:03:41;;;;;;;18.25;16.45;;;;;;;5.15;60.87;93839.03;4987921;28;20038;-68
2021/01/31 11:06:06;;;;;;;18.63;16.63;;;;;;;5.37;62.59;93846.13;4991757;28;20031;-69
2021/01/31 11:08:32;;;;;;;19.02;16.25;;;;;;;5.63;62.44;93850.75;4989153;28;20440;-69
2021/01/31 11:10:58;;;;;;;20.60;18.50;;;;;;;5.56;60.43;93850.44;4989143;28;20034;-70
2021/01/31 11:13:23;;;;;;;21.35;17.98;;;;;;;5.53;60.81;93851.03;4989082;28;20132;-69
2021/01/31 11:15:48;;;;;;;21.02;17.85;;;;;;;5.47;61.11;93845.88;4989146;28;20046;-70
2021/01/31 11:18:14;;;;;;;28.65;19.55;;;;;;;5.43;61.19;93844.19;4991141;28;20029;-70
2021/01/31 11:20:40;;;;;;;22.52;18.85;;;;;;;5.37;61.58;93856.69;4989447;28;20062;-67
2021/01/31 11:23:05;;;;;;;26.95;19.33;;;;;;;5.25;61.20;93840.66;4989318;28;20392;-71
2021/01/31 11:25:31;;;;;;;22.52;18.77;;;;;;;4.70;61.18;93854.84;4989491;28;20042;-70
2021/01/31 11:27:56;;;;;;;20.45;18.15;;;;;;;4.78;62.00;93860.50;4989107;28;20053;-68
2021/01/31 11:30:21;;;;;;;21.13;17.70;;;;;;;4.25;63.00;93869.00;4991346;28;20031;-68
2021/01/31 11:32:47;;;;;;;24.08;19.73;;;;;;;4.38;64.01;93865.56;4988961;28;20034;-72
2021/01/31 11:35:13;;;;;;;22.33;18.88;;;;;;;4.45;63.59;93873.81;4988937;28;20034;-76
2021/01/31 11:37:38;;;;;;;21.17;18.63;;;;;;;4.41;63.36;93875.53;4987460;28;20396;-69
2021/01/31 11:40:06;;;;;;;22.15;18.85;;;;;;;4.13;64.60;93878.16;4988468;28;20037;-68
2021/01/31 11:42:32;;;;;;;20.65;18.23;;;;;;;4.16;64.99;93863.66;4988814;28;20516;-69
2021/01/31 11:44:58;;;;;;;21.27;18.45;;;;;;;4.32;64.53;93853.59;4991782;28;20122;-69
2021/01/31 11:47:25;;;;;;;22.95;17.60;;;;;;;4.67;64.61;93871.25;4989621;28;20432;-69
2021/01/31 11:49:52;;;;;;;22.75;18.40;;;;;;;4.46;64.06;93848.31;4988770;28;20042;-69